sensor_id;sensor_type;location;lat;lon;timestamp;temperature;humidity
52919;DHT22;38793;52.690;6.812;2023-01-08T00:01:51;10.20;99.90
52919;DHT22;38793;52.690;6.812;2023-01-08T00:04:17;10.20;99.90
52919;DHT22;38793;52.690;6.812;2023-01-08T00:06:43;10.20;99.90
52919;DHT22;38793;52.690;6.812;2023-01-08T00:09:09;10.20;99.90
52919;DHT22;38793;52.690;6.812;2023-01-08T00:11:35;10.20;99.90
52919;DHT22;38793;52.690;6.812;2023-01-08T00:14:01;10.20;99.90
52919;DHT22;38793;52.690;6.812;2023-01-08T00:16:27;10.20;99.90
52919;DHT22;38793;52.690;6.812;2023-01-08T00:18:53;10.20;99.90
52919;DHT22;38793;52.690;6.812;2023-01-08T00:21:18;10.20;99.90
52919;DHT22;38793;52.690;6.812;2023-01-08T00:23:45;10.20;99.90
52919;DHT22;38793;52.690;6.812;2023-01-08T00:26:10;10.20;99.90
52919;DHT22;38793;52.690;6.812;2023-01-08T00:28:37;10.20;99.90
52919;DHT22;38793;52.690;6.812;2023-01-08T00:31:04;10.10;99.90
52919;DHT22;38793;52.690;6.812;2023-01-08T00:33:30;10.10;99.90
52919;DHT22;38793;52.690;6.812;2023-01-08T00:35:56;10.10;99.90
52919;DHT22;38793;52.690;6.812;2023-01-08T00:38:28;10.10;99.90
52919;DHT22;38793;52.690;6.812;2023-01-08T00:40:54;10.10;99.90
52919;DHT22;38793;52.690;6.812;2023-01-08T00:43:19;10.10;99.90
52919;DHT22;38793;52.690;6.812;2023-01-08T00:45:45;10.10;99.90
52919;DHT22;38793;52.690;6.812;2023-01-08T00:48:11;10.10;99.90
52919;DHT22;38793;52.690;6.812;2023-01-08T00:50:36;10.10;99.90
52919;DHT22;38793;52.690;6.812;2023-01-08T00:53:02;10.00;99.90
52919;DHT22;38793;52.690;6.812;2023-01-08T00:55:28;10.00;99.90
52919;DHT22;38793;52.690;6.812;2023-01-08T00:57:54;10.00;99.90
52919;DHT22;38793;52.690;6.812;2023-01-08T01:00:20;10.00;99.90
52919;DHT22;38793;52.690;6.812;2023-01-08T01:02:46;10.00;99.90
52919;DHT22;38793;52.690;6.812;2023-01-08T01:05:12;10.00;99.90
52919;DHT22;38793;52.690;6.812;2023-01-08T01:07:44;10.00;99.90
52919;DHT22;38793;52.690;6.812;2023-01-08T01:10:12;10.00;99.90
52919;DHT22;38793;52.690;6.812;2023-01-08T01:12:38;10.00;99.90
52919;DHT22;38793;52.690;6.812;2023-01-08T01:15:05;10.00;99.90
52919;DHT22;38793;52.690;6.812;2023-01-08T01:17:31;10.00;99.90
52919;DHT22;38793;52.690;6.812;2023-01-08T01:19:57;10.00;99.90
52919;DHT22;38793;52.690;6.812;2023-01-08T01:22:22;10.00;99.90
52919;DHT22;38793;52.690;6.812;2023-01-08T01:24:48;10.00;99.90
52919;DHT22;38793;52.690;6.812;2023-01-08T01:27:13;10.00;99.90
52919;DHT22;38793;52.690;6.812;2023-01-08T01:29:39;10.00;99.90
52919;DHT22;38793;52.690;6.812;2023-01-08T01:32:04;10.00;99.90
52919;DHT22;38793;52.690;6.812;2023-01-08T01:34:30;10.00;99.90
52919;DHT22;38793;52.690;6.812;2023-01-08T01:36:56;10.00;99.90
52919;DHT22;38793;52.690;6.812;2023-01-08T01:39:21;10.00;99.90
52919;DHT22;38793;52.690;6.812;2023-01-08T01:41:48;10.00;99.90
52919;DHT22;38793;52.690;6.812;2023-01-08T01:44:42;10.00;99.90
52919;DHT22;38793;52.690;6.812;2023-01-08T01:47:19;9.90;99.90
52919;DHT22;38793;52.690;6.812;2023-01-08T01:52:23;9.70;99.90
52919;DHT22;38793;52.690;6.812;2023-01-08T01:54:50;9.60;99.90
52919;DHT22;38793;52.690;6.812;2023-01-08T01:57:17;9.50;99.90
52919;DHT22;38793;52.690;6.812;2023-01-08T01:59:44;9.50;99.90
52919;DHT22;38793;52.690;6.812;2023-01-08T02:02:10;9.50;99.90
52919;DHT22;38793;52.690;6.812;2023-01-08T02:04:36;9.40;99.90
52919;DHT22;38793;52.690;6.812;2023-01-08T02:07:14;9.30;99.90
52919;DHT22;38793;52.690;6.812;2023-01-08T02:09:48;9.30;99.90
52919;DHT22;38793;52.690;6.812;2023-01-08T02:12:36;9.20;99.90
52919;DHT22;38793;52.690;6.812;2023-01-08T02:15:33;9.20;99.90
52919;DHT22;38793;52.690;6.812;2023-01-08T02:18:07;9.10;99.90
52919;DHT22;38793;52.690;6.812;2023-01-08T02:20:39;9.10;99.90
52919;DHT22;38793;52.690;6.812;2023-01-08T02:23:41;9.10;99.90
52919;DHT22;38793;52.690;6.812;2023-01-08T02:26:23;9.10;99.90
52919;DHT22;38793;52.690;6.812;2023-01-08T02:29:07;9.00;99.90
52919;DHT22;38793;52.690;6.812;2023-01-08T02:31:35;9.00;99.90
52919;DHT22;38793;52.690;6.812;2023-01-08T02:34:02;9.00;99.90
52919;DHT22;38793;52.690;6.812;2023-01-08T02:36:41;9.00;99.90
52919;DHT22;38793;52.690;6.812;2023-01-08T02:44:12;9.10;99.90
52919;DHT22;38793;52.690;6.812;2023-01-08T02:46:42;9.10;99.90
52919;DHT22;38793;52.690;6.812;2023-01-08T02:49:08;9.20;99.90
52919;DHT22;38793;52.690;6.812;2023-01-08T02:51:49;9.20;99.90
52919;DHT22;38793;52.690;6.812;2023-01-08T02:54:20;9.30;99.90
52919;DHT22;38793;52.690;6.812;2023-01-08T02:56:53;9.40;99.90
52919;DHT22;38793;52.690;6.812;2023-01-08T02:59:21;9.40;99.90
52919;DHT22;38793;52.690;6.812;2023-01-08T03:01:48;9.40;99.90
52919;DHT22;38793;52.690;6.812;2023-01-08T03:04:19;9.40;99.90
52919;DHT22;38793;52.690;6.812;2023-01-08T03:06:46;9.50;99.90
52919;DHT22;38793;52.690;6.812;2023-01-08T03:09:13;9.50;99.90
52919;DHT22;38793;52.690;6.812;2023-01-08T03:11:56;9.50;99.90
52919;DHT22;38793;52.690;6.812;2023-01-08T03:14:55;9.60;99.90
52919;DHT22;38793;52.690;6.812;2023-01-08T03:17:31;9.60;99.90
52919;DHT22;38793;52.690;6.812;2023-01-08T03:20:19;9.60;99.90
52919;DHT22;38793;52.690;6.812;2023-01-08T03:22:48;9.70;99.90
52919;DHT22;38793;52.690;6.812;2023-01-08T03:25:16;9.70;99.90
52919;DHT22;38793;52.690;6.812;2023-01-08T03:27:47;9.70;99.90
52919;DHT22;38793;52.690;6.812;2023-01-08T03:30:15;9.70;99.90
52919;DHT22;38793;52.690;6.812;2023-01-08T03:32:42;9.80;99.90
52919;DHT22;38793;52.690;6.812;2023-01-08T03:35:10;9.70;99.90
52919;DHT22;38793;52.690;6.812;2023-01-08T03:37:39;9.70;99.90
52919;DHT22;38793;52.690;6.812;2023-01-08T03:40:19;9.70;99.90
52919;DHT22;38793;52.690;6.812;2023-01-08T03:42:46;9.70;99.90
52919;DHT22;38793;52.690;6.812;2023-01-08T03:45:11;9.60;99.90
52919;DHT22;38793;52.690;6.812;2023-01-08T03:47:38;9.60;99.90
52919;DHT22;38793;52.690;6.812;2023-01-08T03:50:09;9.60;99.90
52919;DHT22;38793;52.690;6.812;2023-01-08T03:52:36;9.60;99.90
52919;DHT22;38793;52.690;6.812;2023-01-08T03:55:02;9.60;99.90
52919;DHT22;38793;52.690;6.812;2023-01-08T03:57:27;9.50;99.90
52919;DHT22;38793;52.690;6.812;2023-01-08T03:59:53;9.50;99.90
52919;DHT22;38793;52.690;6.812;2023-01-08T04:02:19;9.50;99.90
52919;DHT22;38793;52.690;6.812;2023-01-08T04:04:44;9.50;99.90
52919;DHT22;38793;52.690;6.812;2023-01-08T04:07:11;9.50;99.90
52919;DHT22;38793;52.690;6.812;2023-01-08T04:09:37;9.50;99.90
52919;DHT22;38793;52.690;6.812;2023-01-08T04:12:03;9.50;99.90
52919;DHT22;38793;52.690;6.812;2023-01-08T04:14:28;9.40;99.90
52919;DHT22;38793;52.690;6.812;2023-01-08T04:16:54;9.40;99.90
52919;DHT22;38793;52.690;6.812;2023-01-08T04:19:19;9.40;99.90
52919;DHT22;38793;52.690;6.812;2023-01-08T04:21:45;9.40;99.90
52919;DHT22;38793;52.690;6.812;2023-01-08T04:24:11;9.40;99.90
52919;DHT22;38793;52.690;6.812;2023-01-08T04:26:37;9.30;99.90
52919;DHT22;38793;52.690;6.812;2023-01-08T04:29:03;9.30;99.90
52919;DHT22;38793;52.690;6.812;2023-01-08T04:31:29;9.30;99.90
52919;DHT22;38793;52.690;6.812;2023-01-08T04:33:55;9.30;99.90
52919;DHT22;38793;52.690;6.812;2023-01-08T04:36:21;9.30;99.90
52919;DHT22;38793;52.690;6.812;2023-01-08T04:38:46;9.20;99.90
52919;DHT22;38793;52.690;6.812;2023-01-08T04:41:12;9.30;99.90
52919;DHT22;38793;52.690;6.812;2023-01-08T04:43:37;9.30;99.90
52919;DHT22;38793;52.690;6.812;2023-01-08T04:46:04;9.30;99.90
52919;DHT22;38793;52.690;6.812;2023-01-08T04:48:32;9.30;99.90
52919;DHT22;38793;52.690;6.812;2023-01-08T04:50:59;9.30;99.90
52919;DHT22;38793;52.690;6.812;2023-01-08T04:53:25;9.30;99.90
52919;DHT22;38793;52.690;6.812;2023-01-08T04:55:51;9.30;99.90
52919;DHT22;38793;52.690;6.812;2023-01-08T04:58:16;9.30;99.90
52919;DHT22;38793;52.690;6.812;2023-01-08T05:00:42;9.30;99.90
52919;DHT22;38793;52.690;6.812;2023-01-08T05:03:08;9.30;99.90
52919;DHT22;38793;52.690;6.812;2023-01-08T05:05:34;9.20;99.90
52919;DHT22;38793;52.690;6.812;2023-01-08T05:07:59;9.30;99.90
52919;DHT22;38793;52.690;6.812;2023-01-08T05:10:25;9.20;99.90
52919;DHT22;38793;52.690;6.812;2023-01-08T05:12:51;9.10;99.90
52919;DHT22;38793;52.690;6.812;2023-01-08T05:15:16;9.10;99.90
52919;DHT22;38793;52.690;6.812;2023-01-08T05:17:42;9.00;99.90
52919;DHT22;38793;52.690;6.812;2023-01-08T05:20:08;9.00;99.90
52919;DHT22;38793;52.690;6.812;2023-01-08T05:22:34;8.90;99.90
52919;DHT22;38793;52.690;6.812;2023-01-08T05:25:00;8.90;99.90
52919;DHT22;38793;52.690;6.812;2023-01-08T05:27:27;8.80;99.90
52919;DHT22;38793;52.690;6.812;2023-01-08T05:29:53;8.80;99.90
52919;DHT22;38793;52.690;6.812;2023-01-08T05:32:19;8.70;99.90
52919;DHT22;38793;52.690;6.812;2023-01-08T05:34:44;8.70;99.90
52919;DHT22;38793;52.690;6.812;2023-01-08T05:37:10;8.60;99.90
52919;DHT22;38793;52.690;6.812;2023-01-08T05:39:37;8.60;99.90
52919;DHT22;38793;52.690;6.812;2023-01-08T05:42:03;8.60;99.90
52919;DHT22;38793;52.690;6.812;2023-01-08T05:44:28;8.50;99.90
52919;DHT22;38793;52.690;6.812;2023-01-08T05:46:54;8.50;99.90
52919;DHT22;38793;52.690;6.812;2023-01-08T05:49:20;8.50;99.90
52919;DHT22;38793;52.690;6.812;2023-01-08T05:51:49;8.50;99.90
52919;DHT22;38793;52.690;6.812;2023-01-08T05:54:15;8.50;99.90
52919;DHT22;38793;52.690;6.812;2023-01-08T05:56:41;8.50;99.90
52919;DHT22;38793;52.690;6.812;2023-01-08T05:59:10;8.40;99.90
52919;DHT22;38793;52.690;6.812;2023-01-08T06:01:36;8.40;99.90
52919;DHT22;38793;52.690;6.812;2023-01-08T06:04:02;8.40;99.90
52919;DHT22;38793;52.690;6.812;2023-01-08T06:06:27;8.40;99.90
52919;DHT22;38793;52.690;6.812;2023-01-08T06:08:53;8.40;99.90
52919;DHT22;38793;52.690;6.812;2023-01-08T06:11:18;8.40;99.90
52919;DHT22;38793;52.690;6.812;2023-01-08T06:13:44;8.40;99.90
52919;DHT22;38793;52.690;6.812;2023-01-08T06:16:10;8.40;99.90
52919;DHT22;38793;52.690;6.812;2023-01-08T06:18:36;8.40;99.90
52919;DHT22;38793;52.690;6.812;2023-01-08T06:21:02;8.40;99.90
52919;DHT22;38793;52.690;6.812;2023-01-08T06:23:29;8.40;99.90
52919;DHT22;38793;52.690;6.812;2023-01-08T06:25:57;8.40;99.90
52919;DHT22;38793;52.690;6.812;2023-01-08T06:28:23;8.40;99.90
52919;DHT22;38793;52.690;6.812;2023-01-08T06:30:48;8.40;99.90
52919;DHT22;38793;52.690;6.812;2023-01-08T06:33:15;8.40;99.90
52919;DHT22;38793;52.690;6.812;2023-01-08T06:35:40;8.40;99.90
52919;DHT22;38793;52.690;6.812;2023-01-08T06:38:06;8.40;99.90
52919;DHT22;38793;52.690;6.812;2023-01-08T06:40:31;8.40;99.90
52919;DHT22;38793;52.690;6.812;2023-01-08T06:43:01;8.40;99.90
52919;DHT22;38793;52.690;6.812;2023-01-08T06:45:27;8.40;99.90
52919;DHT22;38793;52.690;6.812;2023-01-08T06:47:53;8.40;99.90
52919;DHT22;38793;52.690;6.812;2023-01-08T06:50:18;8.40;99.90
52919;DHT22;38793;52.690;6.812;2023-01-08T06:52:51;8.40;99.90
52919;DHT22;38793;52.690;6.812;2023-01-08T06:55:18;8.40;99.90
52919;DHT22;38793;52.690;6.812;2023-01-08T06:57:44;8.40;99.90
52919;DHT22;38793;52.690;6.812;2023-01-08T07:00:10;8.30;99.90
52919;DHT22;38793;52.690;6.812;2023-01-08T07:02:36;8.30;99.90
52919;DHT22;38793;52.690;6.812;2023-01-08T07:05:01;8.30;99.90
52919;DHT22;38793;52.690;6.812;2023-01-08T07:07:27;8.30;99.90
52919;DHT22;38793;52.690;6.812;2023-01-08T07:09:53;8.30;99.90
52919;DHT22;38793;52.690;6.812;2023-01-08T07:12:18;8.30;99.90
52919;DHT22;38793;52.690;6.812;2023-01-08T07:14:44;8.30;99.90
52919;DHT22;38793;52.690;6.812;2023-01-08T07:17:09;8.30;99.90
52919;DHT22;38793;52.690;6.812;2023-01-08T07:19:35;8.30;99.90
52919;DHT22;38793;52.690;6.812;2023-01-08T07:22:00;8.30;99.90
52919;DHT22;38793;52.690;6.812;2023-01-08T07:24:26;8.30;99.90
52919;DHT22;38793;52.690;6.812;2023-01-08T07:26:51;8.30;99.90
52919;DHT22;38793;52.690;6.812;2023-01-08T07:29:17;8.30;99.90
52919;DHT22;38793;52.690;6.812;2023-01-08T07:31:42;8.30;99.90
52919;DHT22;38793;52.690;6.812;2023-01-08T07:34:08;8.40;99.90
52919;DHT22;38793;52.690;6.812;2023-01-08T07:36:33;8.40;99.90
52919;DHT22;38793;52.690;6.812;2023-01-08T07:38:59;8.40;99.90
52919;DHT22;38793;52.690;6.812;2023-01-08T07:41:25;8.40;99.90
52919;DHT22;38793;52.690;6.812;2023-01-08T07:43:51;8.40;99.90
52919;DHT22;38793;52.690;6.812;2023-01-08T07:46:16;8.40;99.90
52919;DHT22;38793;52.690;6.812;2023-01-08T07:48:42;8.30;99.90
52919;DHT22;38793;52.690;6.812;2023-01-08T07:51:08;8.30;99.90
52919;DHT22;38793;52.690;6.812;2023-01-08T07:53:35;8.30;99.90
52919;DHT22;38793;52.690;6.812;2023-01-08T07:56:03;8.20;99.90
52919;DHT22;38793;52.690;6.812;2023-01-08T07:58:30;8.20;99.90
52919;DHT22;38793;52.690;6.812;2023-01-08T08:00:56;8.20;99.90
52919;DHT22;38793;52.690;6.812;2023-01-08T08:03:22;8.20;99.90
52919;DHT22;38793;52.690;6.812;2023-01-08T08:05:48;8.10;99.90
52919;DHT22;38793;52.690;6.812;2023-01-08T08:08:13;8.10;99.90
52919;DHT22;38793;52.690;6.812;2023-01-08T08:10:40;8.10;99.90
52919;DHT22;38793;52.690;6.812;2023-01-08T08:13:06;8.10;99.90
52919;DHT22;38793;52.690;6.812;2023-01-08T08:15:33;8.00;99.90
52919;DHT22;38793;52.690;6.812;2023-01-08T08:17:58;8.00;99.90
52919;DHT22;38793;52.690;6.812;2023-01-08T08:20:24;8.00;99.90
52919;DHT22;38793;52.690;6.812;2023-01-08T08:22:50;8.00;99.90
52919;DHT22;38793;52.690;6.812;2023-01-08T08:25:16;7.90;99.90
52919;DHT22;38793;52.690;6.812;2023-01-08T08:27:42;7.90;99.90
52919;DHT22;38793;52.690;6.812;2023-01-08T08:30:09;7.90;99.90
52919;DHT22;38793;52.690;6.812;2023-01-08T08:32:35;8.00;99.90
52919;DHT22;38793;52.690;6.812;2023-01-08T08:35:02;8.10;99.90
52919;DHT22;38793;52.690;6.812;2023-01-08T08:37:27;8.30;99.90
52919;DHT22;38793;52.690;6.812;2023-01-08T08:39:53;8.50;99.90
52919;DHT22;38793;52.690;6.812;2023-01-08T08:42:18;8.70;99.90
52919;DHT22;38793;52.690;6.812;2023-01-08T08:44:44;8.90;99.90
52919;DHT22;38793;52.690;6.812;2023-01-08T08:47:10;9.10;99.90
52919;DHT22;38793;52.690;6.812;2023-01-08T08:49:35;9.40;99.90
52919;DHT22;38793;52.690;6.812;2023-01-08T08:52:02;9.50;99.90
52919;DHT22;38793;52.690;6.812;2023-01-08T08:54:28;9.70;99.90
52919;DHT22;38793;52.690;6.812;2023-01-08T08:56:53;9.90;99.90
52919;DHT22;38793;52.690;6.812;2023-01-08T08:59:19;10.10;99.90
52919;DHT22;38793;52.690;6.812;2023-01-08T09:01:44;10.20;99.90
52919;DHT22;38793;52.690;6.812;2023-01-08T09:04:10;10.40;99.90
52919;DHT22;38793;52.690;6.812;2023-01-08T09:06:35;10.50;99.90
52919;DHT22;38793;52.690;6.812;2023-01-08T09:09:01;10.60;99.90
52919;DHT22;38793;52.690;6.812;2023-01-08T09:11:27;10.80;99.90
52919;DHT22;38793;52.690;6.812;2023-01-08T09:13:52;11.00;99.90
52919;DHT22;38793;52.690;6.812;2023-01-08T09:16:18;11.20;99.90
52919;DHT22;38793;52.690;6.812;2023-01-08T09:18:43;11.40;99.90
52919;DHT22;38793;52.690;6.812;2023-01-08T09:21:10;11.60;99.90
52919;DHT22;38793;52.690;6.812;2023-01-08T09:23:35;11.80;99.90
52919;DHT22;38793;52.690;6.812;2023-01-08T09:26:02;12.00;99.90
52919;DHT22;38793;52.690;6.812;2023-01-08T09:28:28;12.30;99.90
52919;DHT22;38793;52.690;6.812;2023-01-08T09:30:54;12.60;99.90
52919;DHT22;38793;52.690;6.812;2023-01-08T09:33:20;13.00;99.90
52919;DHT22;38793;52.690;6.812;2023-01-08T09:35:45;13.20;99.90
52919;DHT22;38793;52.690;6.812;2023-01-08T09:38:11;13.40;99.90
52919;DHT22;38793;52.690;6.812;2023-01-08T09:40:47;13.60;99.90
52919;DHT22;38793;52.690;6.812;2023-01-08T09:43:20;13.80;99.90
52919;DHT22;38793;52.690;6.812;2023-01-08T09:45:55;13.90;99.90
52919;DHT22;38793;52.690;6.812;2023-01-08T09:48:28;14.00;99.90
52919;DHT22;38793;52.690;6.812;2023-01-08T09:50:54;14.20;99.90
52919;DHT22;38793;52.690;6.812;2023-01-08T09:53:20;14.30;99.90
52919;DHT22;38793;52.690;6.812;2023-01-08T09:55:54;14.40;99.90
52919;DHT22;38793;52.690;6.812;2023-01-08T10:00:55;14.70;99.90
52919;DHT22;38793;52.690;6.812;2023-01-08T10:03:24;14.80;99.90
52919;DHT22;38793;52.690;6.812;2023-01-08T10:05:53;14.60;99.90
52919;DHT22;38793;52.690;6.812;2023-01-08T10:08:18;13.90;99.90
52919;DHT22;38793;52.690;6.812;2023-01-08T10:10:44;13.50;99.90
52919;DHT22;38793;52.690;6.812;2023-01-08T10:13:11;13.50;99.90
52919;DHT22;38793;52.690;6.812;2023-01-08T10:15:39;13.70;99.90
52919;DHT22;38793;52.690;6.812;2023-01-08T10:18:09;14.10;99.90
52919;DHT22;38793;52.690;6.812;2023-01-08T10:20:35;14.50;99.90
52919;DHT22;38793;52.690;6.812;2023-01-08T10:23:17;14.90;99.90
52919;DHT22;38793;52.690;6.812;2023-01-08T10:26:01;15.20;98.70
52919;DHT22;38793;52.690;6.812;2023-01-08T10:28:30;15.20;98.90
52919;DHT22;38793;52.690;6.812;2023-01-08T10:31:14;15.20;98.00
52919;DHT22;38793;52.690;6.812;2023-01-08T10:33:48;14.60;97.60
52919;DHT22;38793;52.690;6.812;2023-01-08T10:36:22;13.90;98.00
52919;DHT22;38793;52.690;6.812;2023-01-08T10:38:56;13.30;99.10
52919;DHT22;38793;52.690;6.812;2023-01-08T10:41:23;13.40;99.90
52919;DHT22;38793;52.690;6.812;2023-01-08T10:44:01;14.00;99.90
52919;DHT22;38793;52.690;6.812;2023-01-08T10:46:29;14.90;99.90
52919;DHT22;38793;52.690;6.812;2023-01-08T10:48:59;15.40;99.70
52919;DHT22;38793;52.690;6.812;2023-01-08T10:51:27;15.70;97.40
52919;DHT22;38793;52.690;6.812;2023-01-08T10:53:57;15.60;94.90
52919;DHT22;38793;52.690;6.812;2023-01-08T10:56:29;15.60;96.20
52919;DHT22;38793;52.690;6.812;2023-01-08T10:58:56;15.80;96.20
52919;DHT22;38793;52.690;6.812;2023-01-08T11:04:00;15.30;94.80
52919;DHT22;38793;52.690;6.812;2023-01-08T11:06:31;14.70;95.80
52919;DHT22;38793;52.690;6.812;2023-01-08T11:09:00;14.20;97.70
52919;DHT22;38793;52.690;6.812;2023-01-08T11:11:36;13.70;99.20
52919;DHT22;38793;52.690;6.812;2023-01-08T11:14:04;13.60;99.90
52919;DHT22;38793;52.690;6.812;2023-01-08T11:16:34;13.60;99.90
52919;DHT22;38793;52.690;6.812;2023-01-08T11:18:59;14.00;99.90
52919;DHT22;38793;52.690;6.812;2023-01-08T11:21:28;14.50;99.90
52919;DHT22;38793;52.690;6.812;2023-01-08T11:24:18;15.00;99.40
52919;DHT22;38793;52.690;6.812;2023-01-08T11:27:15;15.90;97.20
52919;DHT22;38793;52.690;6.812;2023-01-08T11:32:53;17.00;94.40
52919;DHT22;38793;52.690;6.812;2023-01-08T11:35:24;16.60;93.70
52919;DHT22;38793;52.690;6.812;2023-01-08T11:37:54;15.50;93.80
52919;DHT22;38793;52.690;6.812;2023-01-08T11:40:41;14.60;96.70
52919;DHT22;38793;52.690;6.812;2023-01-08T11:49:10;13.60;99.90
52919;DHT22;38793;52.690;6.812;2023-01-08T11:51:46;13.10;99.90
52919;DHT22;38793;52.690;6.812;2023-01-08T11:57:34;13.10;99.90
52919;DHT22;38793;52.690;6.812;2023-01-08T12:03:09;13.00;99.90
52919;DHT22;38793;52.690;6.812;2023-01-08T12:08:35;11.90;99.90
52919;DHT22;38793;52.690;6.812;2023-01-08T12:11:28;11.60;99.90
52919;DHT22;38793;52.690;6.812;2023-01-08T12:14:13;11.40;99.90
52919;DHT22;38793;52.690;6.812;2023-01-08T12:19:41;11.80;99.90
52919;DHT22;38793;52.690;6.812;2023-01-08T12:22:33;12.40;99.90
52919;DHT22;38793;52.690;6.812;2023-01-08T12:36:02;13.80;99.90
52919;DHT22;38793;52.690;6.812;2023-01-08T12:38:36;13.30;99.90
52919;DHT22;38793;52.690;6.812;2023-01-08T12:41:12;13.60;99.90
52919;DHT22;38793;52.690;6.812;2023-01-08T12:43:58;14.40;99.90
52919;DHT22;38793;52.690;6.812;2023-01-08T12:46:29;15.60;99.90
52919;DHT22;38793;52.690;6.812;2023-01-08T12:48:56;16.70;98.80
52919;DHT22;38793;52.690;6.812;2023-01-08T12:51:33;17.30;96.10
52919;DHT22;38793;52.690;6.812;2023-01-08T12:57:01;17.30;94.50
52919;DHT22;38793;52.690;6.812;2023-01-08T12:59:36;17.80;95.80
52919;DHT22;38793;52.690;6.812;2023-01-08T13:04:42;18.70;91.50
52919;DHT22;38793;52.690;6.812;2023-01-08T13:07:28;18.70;91.90
52919;DHT22;38793;52.690;6.812;2023-01-08T13:10:02;18.80;90.50
52919;DHT22;38793;52.690;6.812;2023-01-08T13:12:39;19.00;89.90
52919;DHT22;38793;52.690;6.812;2023-01-08T13:15:21;18.80;85.40
52919;DHT22;38793;52.690;6.812;2023-01-08T13:17:48;17.80;87.00
52919;DHT22;38793;52.690;6.812;2023-01-08T13:20:20;16.70;89.30
52919;DHT22;38793;52.690;6.812;2023-01-08T13:22:55;15.60;91.80
52919;DHT22;38793;52.690;6.812;2023-01-08T13:27:47;14.10;97.30
52919;DHT22;38793;52.690;6.812;2023-01-08T13:30:48;14.20;99.70
52919;DHT22;38793;52.690;6.812;2023-01-08T13:38:43;17.00;94.20
52919;DHT22;38793;52.690;6.812;2023-01-08T13:44:38;17.30;92.70
52919;DHT22;38793;52.690;6.812;2023-01-08T13:46:55;17.40;91.60
52919;DHT22;38793;52.690;6.812;2023-01-08T13:52:00;17.60;91.40
52919;DHT22;38793;52.690;6.812;2023-01-08T13:57:06;17.70;91.50
52919;DHT22;38793;52.690;6.812;2023-01-08T13:59:55;18.30;91.00
52919;DHT22;38793;52.690;6.812;2023-01-08T14:02:30;18.20;86.70
52919;DHT22;38793;52.690;6.812;2023-01-08T14:04:58;18.30;88.60
52919;DHT22;38793;52.690;6.812;2023-01-08T14:07:24;18.00;88.70
52919;DHT22;38793;52.690;6.812;2023-01-08T14:09:50;17.40;88.70
52919;DHT22;38793;52.690;6.812;2023-01-08T14:12:17;16.40;90.10
52919;DHT22;38793;52.690;6.812;2023-01-08T14:14:53;15.30;91.20
52919;DHT22;38793;52.690;6.812;2023-01-08T14:17:23;14.40;94.40
52919;DHT22;38793;52.690;6.812;2023-01-08T14:19:50;13.60;97.20
52919;DHT22;38793;52.690;6.812;2023-01-08T14:22:25;12.80;99.90
52919;DHT22;38793;52.690;6.812;2023-01-08T14:24:54;12.30;99.90
52919;DHT22;38793;52.690;6.812;2023-01-08T14:27:25;11.80;99.90
52919;DHT22;38793;52.690;6.812;2023-01-08T14:29:52;11.50;99.90
52919;DHT22;38793;52.690;6.812;2023-01-08T14:32:19;11.20;99.90
52919;DHT22;38793;52.690;6.812;2023-01-08T14:34:46;11.00;99.90
52919;DHT22;38793;52.690;6.812;2023-01-08T14:37:14;10.80;99.90
52919;DHT22;38793;52.690;6.812;2023-01-08T14:39:41;10.70;99.90
52919;DHT22;38793;52.690;6.812;2023-01-08T14:42:40;10.50;99.90
52919;DHT22;38793;52.690;6.812;2023-01-08T14:45:18;10.40;99.90
52919;DHT22;38793;52.690;6.812;2023-01-08T14:47:47;10.40;99.90
52919;DHT22;38793;52.690;6.812;2023-01-08T14:52:50;10.40;99.90
52919;DHT22;38793;52.690;6.812;2023-01-08T14:55:18;10.50;99.90
52919;DHT22;38793;52.690;6.812;2023-01-08T14:57:50;10.40;99.90
52919;DHT22;38793;52.690;6.812;2023-01-08T15:00:27;10.40;99.90
52919;DHT22;38793;52.690;6.812;2023-01-08T15:02:54;10.20;99.90
52919;DHT22;38793;52.690;6.812;2023-01-08T15:05:29;10.20;99.90
52919;DHT22;38793;52.690;6.812;2023-01-08T15:08:20;10.00;99.90
52919;DHT22;38793;52.690;6.812;2023-01-08T15:11:04;9.90;99.90
52919;DHT22;38793;52.690;6.812;2023-01-08T15:13:35;9.80;99.90
52919;DHT22;38793;52.690;6.812;2023-01-08T15:16:17;9.80;99.90
52919;DHT22;38793;52.690;6.812;2023-01-08T15:18:49;9.70;99.90
52919;DHT22;38793;52.690;6.812;2023-01-08T15:21:19;9.60;99.90
52919;DHT22;38793;52.690;6.812;2023-01-08T15:23:48;9.50;99.90
52919;DHT22;38793;52.690;6.812;2023-01-08T15:26:15;9.40;99.90
52919;DHT22;38793;52.690;6.812;2023-01-08T15:28:51;9.40;99.90
52919;DHT22;38793;52.690;6.812;2023-01-08T15:31:26;9.40;99.90
52919;DHT22;38793;52.690;6.812;2023-01-08T15:33:51;9.30;99.90
52919;DHT22;38793;52.690;6.812;2023-01-08T15:36:17;9.20;99.90
52919;DHT22;38793;52.690;6.812;2023-01-08T15:38:43;9.20;99.90
52919;DHT22;38793;52.690;6.812;2023-01-08T15:41:09;9.20;99.90
52919;DHT22;38793;52.690;6.812;2023-01-08T15:43:35;9.10;99.90
52919;DHT22;38793;52.690;6.812;2023-01-08T15:46:00;9.10;99.90
52919;DHT22;38793;52.690;6.812;2023-01-08T15:48:26;9.00;99.90
52919;DHT22;38793;52.690;6.812;2023-01-08T15:50:51;9.00;99.90
52919;DHT22;38793;52.690;6.812;2023-01-08T15:53:19;8.90;99.90
52919;DHT22;38793;52.690;6.812;2023-01-08T15:55:47;8.90;99.90
52919;DHT22;38793;52.690;6.812;2023-01-08T15:58:14;8.80;99.90
52919;DHT22;38793;52.690;6.812;2023-01-08T16:00:42;8.80;99.90
52919;DHT22;38793;52.690;6.812;2023-01-08T16:03:08;8.80;99.90
52919;DHT22;38793;52.690;6.812;2023-01-08T16:05:35;8.80;99.90
52919;DHT22;38793;52.690;6.812;2023-01-08T16:08:01;8.70;99.90
52919;DHT22;38793;52.690;6.812;2023-01-08T16:10:27;8.70;99.90
52919;DHT22;38793;52.690;6.812;2023-01-08T16:12:53;8.70;99.90
52919;DHT22;38793;52.690;6.812;2023-01-08T16:15:19;8.70;99.90
52919;DHT22;38793;52.690;6.812;2023-01-08T16:17:45;8.60;99.90
52919;DHT22;38793;52.690;6.812;2023-01-08T16:20:11;8.60;99.90
52919;DHT22;38793;52.690;6.812;2023-01-08T16:22:37;8.50;99.90
52919;DHT22;38793;52.690;6.812;2023-01-08T16:25:03;8.50;99.90
52919;DHT22;38793;52.690;6.812;2023-01-08T16:27:29;8.50;99.90
52919;DHT22;38793;52.690;6.812;2023-01-08T16:29:55;8.40;99.90
52919;DHT22;38793;52.690;6.812;2023-01-08T16:32:21;8.40;99.90
52919;DHT22;38793;52.690;6.812;2023-01-08T16:34:46;8.40;99.90
52919;DHT22;38793;52.690;6.812;2023-01-08T16:37:12;8.40;99.90
52919;DHT22;38793;52.690;6.812;2023-01-08T16:39:38;8.30;99.90
52919;DHT22;38793;52.690;6.812;2023-01-08T16:42:03;8.30;99.90
52919;DHT22;38793;52.690;6.812;2023-01-08T16:44:30;8.30;99.90
52919;DHT22;38793;52.690;6.812;2023-01-08T16:46:57;8.30;99.90
52919;DHT22;38793;52.690;6.812;2023-01-08T16:49:23;8.30;99.90
52919;DHT22;38793;52.690;6.812;2023-01-08T16:51:49;8.30;99.90
52919;DHT22;38793;52.690;6.812;2023-01-08T16:54:15;8.20;99.90
52919;DHT22;38793;52.690;6.812;2023-01-08T16:56:41;8.20;99.90
52919;DHT22;38793;52.690;6.812;2023-01-08T16:59:08;8.20;99.90
52919;DHT22;38793;52.690;6.812;2023-01-08T17:01:34;8.20;99.90